Time;durP1;ratioP1;P1;durP2;ratioP2;P2;SDS_P1;SDS_P2;PMS_P1;PMS_P2;Temp;Humidity;BMP_temperature;BMP_pressure;BME280_temperature;BME280_humidity;BME280_pressure;Samples;Min_cycle;Max_cycle;Signal;HPM_P1;HPM_P2
2022/04/11 00:01:40;;;;;;;5.57;2.60;;;;;;;4.30;97.69;102020.41;5110759;28;20044;-27
2022/04/11 00:04:08;;;;;;;5.43;2.80;;;;;;;4.31;97.85;102012.94;5109842;28;20050;-26
2022/04/11 00:06:35;;;;;;;4.57;2.42;;;;;;;4.30;97.56;102014.03;5110694;28;20070;-26
2022/04/11 00:09:03;;;;;;;5.05;2.20;;;;;;;4.29;97.35;102013.19;5110457;28;20415;-26
2022/04/11 00:11:31;;;;;;;6.45;2.92;;;;;;;4.27;97.80;102012.56;5109647;28;20044;-27
2022/04/11 00:14:01;;;;;;;8.05;3.47;;;;;;;4.26;97.43;102012.78;5110612;28;20048;-27
2022/04/11 00:16:29;;;;;;;6.15;3.65;;;;;;;4.24;97.76;102010.25;5110779;28;20051;-27
2022/04/11 00:18:57;;;;;;;6.97;3.15;;;;;;;4.24;97.85;102012.16;5109783;28;20058;-26
2022/04/11 00:21:25;;;;;;;4.10;2.45;;;;;;;4.25;97.87;102002.81;5110454;28;20052;-26
2022/04/11 00:23:52;;;;;;;3.45;2.15;;;;;;;4.22;97.65;101998.59;5110528;28;20043;-27
2022/04/11 00:26:20;;;;;;;6.57;2.40;;;;;;;4.22;97.76;101990.28;5109315;28;20038;-27
2022/04/11 00:28:48;;;;;;;3.38;2.05;;;;;;;4.21;97.75;101991.38;5113318;28;20047;-28
2022/04/11 00:31:18;;;;;;;4.75;2.17;;;;;;;4.19;97.37;101999.06;5114089;28;20395;-26
2022/04/11 00:33:46;;;;;;;4.30;2.50;;;;;;;4.15;97.18;101989.53;5113432;28;20035;-28
2022/04/11 00:36:13;;;;;;;5.03;2.22;;;;;;;4.12;97.28;101996.38;5114236;28;20043;-28
2022/04/11 00:38:41;;;;;;;6.57;2.47;;;;;;;4.10;97.11;101992.13;5113410;28;20095;-27
2022/04/11 00:41:09;;;;;;;3.42;2.10;;;;;;;4.06;96.93;101990.91;5113259;28;20453;-27
2022/04/11 00:43:40;;;;;;;2.60;1.60;;;;;;;4.00;97.04;101989.88;5112477;28;20059;-26
2022/04/11 00:46:10;;;;;;;3.20;2.20;;;;;;;3.97;97.17;101990.38;5111862;28;20504;-26
2022/04/11 00:48:40;;;;;;;4.80;2.10;;;;;;;3.93;97.12;101988.28;5112558;28;20047;-26
2022/04/11 00:51:10;;;;;;;3.17;1.90;;;;;;;3.90;97.26;101994.25;5113969;28;20039;-26
2022/04/11 00:53:42;;;;;;;4.97;1.80;;;;;;;3.85;97.20;101992.16;5112942;27;20146;-26
2022/04/11 00:56:14;;;;;;;3.60;1.90;;;;;;;3.80;97.24;102003.88;5114000;28;20050;-27
2022/04/11 00:58:41;;;;;;;3.73;1.97;;;;;;;3.77;97.22;102003.53;5112553;28;20043;-27
2022/04/11 01:01:09;;;;;;;3.95;1.80;;;;;;;3.74;97.76;101999.28;5112878;28;20050;-27
2022/04/11 01:03:40;;;;;;;3.88;1.90;;;;;;;3.72;97.61;102004.19;5112180;28;20048;-26
2022/04/11 01:06:08;;;;;;;4.18;2.10;;;;;;;3.71;97.75;102008.03;5113856;28;20058;-27
2022/04/11 01:08:37;;;;;;;3.55;2.00;;;;;;;3.72;97.92;102001.44;5111550;28;20052;-26
2022/04/11 01:11:05;;;;;;;3.30;1.92;;;;;;;3.75;97.95;102006.50;5113615;28;20071;-28
2022/04/11 01:13:33;;;;;;;4.85;2.63;;;;;;;3.76;97.90;102005.44;5111997;28;20092;-31
2022/04/11 01:16:03;;;;;;;4.63;2.40;;;;;;;3.77;98.06;102001.59;5111180;28;20031;-26
2022/04/11 01:18:34;;;;;;;5.25;2.60;;;;;;;3.78;98.21;101989.50;5111867;28;20054;-25
2022/04/11 01:21:05;;;;;;;5.90;2.58;;;;;;;3.81;98.46;101996.44;5112975;28;20031;-26
2022/04/11 01:23:34;;;;;;;5.03;2.80;;;;;;;3.84;98.39;101984.13;5113230;28;20048;-30
2022/04/11 01:26:02;;;;;;;3.78;2.28;;;;;;;3.85;98.26;101989.41;5102153;28;20086;-31
2022/04/11 01:28:32;;;;;;;4.25;2.40;;;;;;;3.87;98.34;101989.19;5107654;28;20390;-26
2022/04/11 01:31:00;;;;;;;4.55;2.42;;;;;;;3.89;98.17;101985.13;5113052;28;20049;-27
2022/04/11 01:33:30;;;;;;;6.25;2.60;;;;;;;3.90;97.84;101977.69;5111546;28;20039;-26
2022/04/11 01:36:03;;;;;;;5.13;3.47;;;;;;;3.90;97.73;101980.44;5111255;28;20473;-28
2022/04/11 01:38:31;;;;;;;3.90;2.50;;;;;;;3.89;97.59;101974.09;5112542;28;20164;-25
2022/04/11 01:41:00;;;;;;;4.55;2.35;;;;;;;3.91;97.48;101973.84;5111609;28;20040;-27
2022/04/11 01:43:29;;;;;;;4.13;2.13;;;;;;;3.91;97.28;101973.84;5111982;28;20079;-27
2022/04/11 01:45:57;;;;;;;3.22;1.90;;;;;;;3.91;97.10;101980.22;5111599;28;21027;-27
2022/04/11 01:48:37;;;;;;;3.97;2.03;;;;;;;3.89;96.86;101967.72;5111509;28;20048;-31
2022/04/11 01:51:05;;;;;;;2.88;1.60;;;;;;;3.86;96.62;101971.78;5112029;28;20043;-26
2022/04/11 01:53:33;;;;;;;2.45;1.48;;;;;;;3.84;96.67;101967.53;5111354;28;20079;-27
2022/04/11 01:56:02;;;;;;;3.58;1.60;;;;;;;3.82;96.49;101967.78;5110954;28;20051;-28
2022/04/11 01:58:32;;;;;;;2.83;1.35;;;;;;;3.77;96.55;101962.97;5111556;28;20051;-26
2022/04/11 02:00:59;;;;;;;3.17;1.77;;;;;;;3.74;96.61;101968.94;5111079;28;20055;-26
2022/04/11 02:03:32;;;;;;;3.55;1.80;;;;;;;3.71;96.73;101969.38;5111829;28;20442;-26
2022/04/11 02:06:00;;;;;;;3.17;1.85;;;;;;;3.69;96.69;101970.66;5111001;28;20092;-27
2022/04/11 02:08:28;;;;;;;3.95;1.70;;;;;;;3.68;96.96;101968.97;5112172;28;20040;-26
2022/04/11 02:11:02;;;;;;;3.45;1.90;;;;;;;3.66;97.10;101968.34;5110352;28;20054;-28
2022/04/11 02:13:30;;;;;;;3.15;1.67;;;;;;;3.63;97.10;101966.88;5112405;28;20481;-26
2022/04/11 02:15:59;;;;;;;4.18;2.10;;;;;;;3.62;97.24;101970.72;5110648;28;20408;-28
2022/04/11 02:18:27;;;;;;;4.85;2.60;;;;;;;3.61;97.56;101974.56;5111472;28;20119;-26
2022/04/11 02:20:54;;;;;;;6.00;3.03;;;;;;;3.63;97.71;101975.16;5110550;28;20055;-25
2022/04/11 02:23:23;;;;;;;5.28;2.60;;;;;;;3.66;98.00;101969.19;5112161;28;20080;-26
2022/04/11 02:25:51;;;;;;;6.05;3.00;;;;;;;3.70;98.07;101964.09;5111381;28;20051;-26
2022/04/11 02:28:20;;;;;;;7.03;3.22;;;;;;;3.75;98.28;101961.50;5112014;28;20054;-26
2022/04/11 02:30:50;;;;;;;6.63;3.05;;;;;;;3.80;98.74;101959.72;5110607;28;20059;-28
2022/04/11 02:33:18;;;;;;;6.05;3.22;;;;;;;3.85;99.01;101964.56;5111097;28;20043;-26
2022/04/11 02:35:47;;;;;;;4.50;3.15;;;;;;;3.90;99.13;101961.13;5110672;28;20469;-28
2022/04/11 02:38:16;;;;;;;7.60;3.60;;;;;;;3.94;99.29;101956.84;5110299;28;20047;-28
2022/04/11 02:40:47;;;;;;;7.35;3.28;;;;;;;3.97;99.13;101957.22;5110255;28;20052;-28
2022/04/11 02:43:18;;;;;;;4.38;2.85;;;;;;;4.01;99.52;101955.69;5110666;28;20134;-27
2022/04/11 02:45:52;;;;;;;6.53;3.30;;;;;;;4.06;99.74;101957.75;5109487;28;20057;-26
2022/04/11 02:48:26;;;;;;;6.10;3.15;;;;;;;4.11;100.00;101953.25;5107996;28;20440;-28
2022/04/11 02:51:06;;;;;;;6.53;3.00;;;;;;;4.18;100.00;101961.47;5109783;28;20587;-29
2022/04/11 02:53:42;;;;;;;9.18;4.40;;;;;;;4.23;100.00;101953.31;5109563;28;20159;-30
2022/04/11 02:56:11;;;;;;;8.40;3.88;;;;;;;4.30;100.00;101953.25;5109908;28;20035;-28
2022/04/11 02:58:39;;;;;;;6.90;3.42;;;;;;;4.34;100.00;101954.47;5106694;28;20564;-27
2022/04/11 03:01:08;;;;;;;7.90;3.85;;;;;;;4.40;100.00;101951.59;5109309;28;20067;-30
2022/04/11 03:03:37;;;;;;;7.03;3.80;;;;;;;4.44;100.00;101952.00;5111099;28;20071;-28
2022/04/11 03:06:06;;;;;;;6.57;3.35;;;;;;;4.49;100.00;101944.69;5109916;28;20043;-27
2022/04/11 03:08:35;;;;;;;6.88;3.28;;;;;;;4.55;100.00;101944.84;5107550;28;20075;-29
2022/04/11 03:11:05;;;;;;;7.10;3.88;;;;;;;4.58;100.00;101944.41;5110090;28;20515;-29
2022/04/11 03:13:33;;;;;;;9.35;3.08;;;;;;;4.61;100.00;101941.13;5109492;28;20491;-29
2022/04/11 03:16:00;;;;;;;6.63;3.45;;;;;;;4.65;100.00;101942.38;5110053;28;20086;-28
2022/04/11 03:18:30;;;;;;;6.18;3.22;;;;;;;4.67;100.00;101945.75;5110152;28;20053;-28
2022/04/11 03:20:58;;;;;;;5.60;3.10;;;;;;;4.70;100.00;101939.75;5109218;28;20500;-27
2022/04/11 03:23:27;;;;;;;4.88;3.05;;;;;;;4.71;100.00;101936.75;5109855;28;20480;-28
2022/04/11 03:25:57;;;;;;;6.82;3.28;;;;;;;4.74;100.00;101935.44;5110197;28;20454;-33
2022/04/11 03:28:29;;;;;;;5.30;2.75;;;;;;;4.76;100.00;101930.53;5109317;28;20112;-28
2022/04/11 03:30:56;;;;;;;4.30;2.53;;;;;;;4.79;100.00;101932.84;5111151;28;20108;-27
2022/04/11 03:33:26;;;;;;;3.75;2.15;;;;;;;4.82;100.00;101935.09;5109696;28;20090;-27
2022/04/11 03:35:55;;;;;;;5.53;2.83;;;;;;;4.84;100.00;101942.09;5108141;28;20112;-26
2022/04/11 03:38:23;;;;;;;5.43;2.70;;;;;;;4.87;100.00;101934.41;5108048;28;20057;-28
2022/04/11 03:40:51;;;;;;;5.70;2.78;;;;;;;4.89;100.00;101930.31;5110303;28;20120;-27
2022/04/11 03:43:19;;;;;;;3.72;2.30;;;;;;;4.91;100.00;101930.94;5108415;28;20440;-27
2022/04/11 03:45:48;;;;;;;7.68;3.08;;;;;;;4.94;100.00;101933.25;5109298;28;20304;-28
2022/04/11 03:48:19;;;;;;;4.82;2.75;;;;;;;4.96;100.00;101933.84;5109170;28;20052;-27
2022/04/11 03:50:46;;;;;;;4.28;2.70;;;;;;;4.99;100.00;101932.53;5108419;28;20077;-27
2022/04/11 03:53:16;;;;;;;5.60;2.88;;;;;;;5.01;100.00;101928.44;5109135;28;20057;-28
2022/04/11 03:55:48;;;;;;;5.10;2.28;;;;;;;5.04;100.00;101930.72;5108814;28;20048;-28
2022/04/11 03:58:17;;;;;;;7.15;3.08;;;;;;;5.07;100.00;101927.50;5109671;28;20446;-27
2022/04/11 04:00:46;;;;;;;5.40;2.80;;;;;;;5.11;100.00;101930.63;5106094;28;20138;-27
2022/04/11 04:03:26;;;;;;;4.63;2.47;;;;;;;5.12;100.00;101930.41;5112214;28;20035;-27
2022/04/11 04:06:00;;;;;;;4.93;2.15;;;;;;;5.16;100.00;101922.47;5111049;28;20484;-26
2022/04/11 04:08:35;;;;;;;4.55;2.13;;;;;;;5.19;100.00;101922.00;5113250;28;20054;-32
2022/04/11 04:11:12;;;;;;;4.53;2.10;;;;;;;5.21;100.00;101925.34;5110006;28;20048;-33
2022/04/11 04:13:45;;;;;;;8.27;2.47;;;;;;;5.23;100.00;101911.28;5113127;28;20044;-30
2022/04/11 04:16:14;;;;;;;5.13;2.78;;;;;;;5.26;100.00;101919.09;5113257;28;20039;-32
2022/04/11 04:18:49;;;;;;;5.15;2.45;;;;;;;5.28;100.00;101914.19;5112249;28;20409;-32
2022/04/11 04:21:18;;;;;;;5.18;2.20;;;;;;;5.30;100.00;101912.03;5112302;28;20135;-28
2022/04/11 04:23:49;;;;;;;6.20;2.90;;;;;;;5.33;100.00;101917.09;5112111;28;20055;-27
2022/04/11 04:26:20;;;;;;;3.58;1.90;;;;;;;5.34;100.00;101910.47;5113117;28;20178;-27
2022/04/11 04:28:48;;;;;;;3.05;1.50;;;;;;;5.37;100.00;101912.75;5112900;28;20500;-26
2022/04/11 04:31:17;;;;;;;3.67;1.92;;;;;;;5.38;100.00;101914.44;5112080;28;20138;-29
2022/04/11 04:33:45;;;;;;;5.55;2.15;;;;;;;5.40;100.00;101918.63;5114226;28;20079;-28
2022/04/11 04:36:14;;;;;;;3.63;1.95;;;;;;;5.42;100.00;101915.63;5112480;28;20096;-29
2022/04/11 04:38:42;;;;;;;5.65;2.63;;;;;;;5.43;100.00;101912.63;5111906;28;20048;-28
2022/04/11 04:41:11;;;;;;;4.80;2.20;;;;;;;5.45;100.00;101915.16;5112712;28;20139;-31
2022/04/11 04:43:39;;;;;;;2.67;1.60;;;;;;;5.47;100.00;101921.31;5112712;28;20052;-26
2022/04/11 04:46:08;;;;;;;4.97;1.60;;;;;;;5.49;100.00;101913.59;5111633;28;20135;-29
2022/04/11 04:48:41;;;;;;;3.80;1.60;;;;;;;5.50;100.00;101915.28;5112416;28;20445;-27
2022/04/11 04:51:10;;;;;;;2.90;1.58;;;;;;;5.50;100.00;101910.59;5112454;28;20040;-32
2022/04/11 04:53:43;;;;;;;3.50;1.73;;;;;;;5.51;100.00;101908.69;5111105;28;20090;-29
2022/04/11 04:56:12;;;;;;;2.95;1.55;;;;;;;5.53;100.00;101912.06;5113471;28;20039;-28
2022/04/11 04:58:44;;;;;;;3.10;1.75;;;;;;;5.53;100.00;101914.81;5112213;28;20075;-26
2022/04/11 05:01:12;;;;;;;4.47;1.55;;;;;;;5.54;100.00;101914.59;5111345;28;20116;-26
2022/04/11 05:03:41;;;;;;;3.88;1.83;;;;;;;5.53;100.00;101912.06;5112301;28;20489;-27
2022/04/11 05:06:11;;;;;;;3.45;1.60;;;;;;;5.53;100.00;101914.81;5111244;28;20073;-26
2022/04/11 05:08:40;;;;;;;3.40;1.42;;;;;;;5.49;100.00;101911.69;5112006;28;20055;-31
2022/04/11 05:11:07;;;;;;;3.35;1.50;;;;;;;5.47;100.00;101924.91;5109575;28;20039;-30
2022/04/11 05:13:38;;;;;;;2.92;1.25;;;;;;;5.45;100.00;101916.00;5099471;28;20515;-28
2022/04/11 05:16:06;;;;;;;3.20;1.60;;;;;;;5.42;100.00;101910.94;5109600;28;20036;-27
2022/04/11 05:18:35;;;;;;;4.65;1.88;;;;;;;5.41;100.00;101914.78;5111634;28;20070;-26
2022/04/11 05:21:04;;;;;;;5.70;1.58;;;;;;;5.40;100.00;101912.25;5112161;28;20078;-27
2022/04/11 05:23:35;;;;;;;3.38;1.70;;;;;;;5.39;100.00;101899.53;5112068;28;20093;-26
2022/04/11 05:26:05;;;;;;;4.00;2.08;;;;;;;5.38;100.00;101904.22;5113030;28;20580;-26
2022/04/11 05:28:35;;;;;;;2.93;1.70;;;;;;;5.38;100.00;101911.69;5109886;28;20054;-27
2022/04/11 05:31:05;;;;;;;4.72;2.30;;;;;;;5.39;100.00;101913.38;5111972;28;20489;-26
2022/04/11 05:33:38;;;;;;;3.90;1.63;;;;;;;5.37;100.00;101905.31;5112168;28;20556;-27
2022/04/11 05:36:09;;;;;;;;;;;;;;;5.37;100.00;101907.22;5111461;28;20200;-27
2022/04/11 05:38:37;;;;;;;3.63;2.00;;;;;;;5.37;100.00;101905.31;5111131;28;19924;-26
2022/04/11 05:41:06;;;;;;;3.35;1.92;;;;;;;5.43;100.00;101909.03;5111381;28;20080;-31
2022/04/11 05:43:44;;;;;;;4.32;1.73;;;;;;;5.47;100.00;101916.63;5110060;28;20520;-27
2022/04/11 05:46:14;;;;;;;3.42;2.00;;;;;;;5.52;100.00;101905.66;5111660;28;20066;-29
2022/04/11 05:48:48;;;;;;;3.83;2.20;;;;;;;5.55;100.00;101907.13;5110894;28;20138;-26
2022/04/11 05:51:16;;;;;;;4.30;2.15;;;;;;;5.59;100.00;101911.09;5112642;28;20058;-27
2022/04/11 05:53:44;;;;;;;6.20;2.45;;;;;;;5.64;100.00;101913.13;5112777;28;20043;-27
2022/04/11 05:56:12;;;;;;;4.55;2.47;;;;;;;5.68;100.00;101912.41;5110403;28;20050;-27
2022/04/11 05:58:39;;;;;;;5.30;2.45;;;;;;;5.73;100.00;101911.69;5110899;28;20060;-26
2022/04/11 06:01:07;;;;;;;4.93;2.42;;;;;;;5.75;100.00;101910.38;5112537;28;20067;-27
2022/04/11 06:03:38;;;;;;;7.22;2.65;;;;;;;5.81;100.00;101925.16;5111614;28;20078;-26
2022/04/11 06:06:06;;;;;;;5.43;2.60;;;;;;;5.84;100.00;101924.69;5111088;28;20082;-27
2022/04/11 06:08:35;;;;;;;4.97;2.65;;;;;;;5.88;100.00;101925.88;5110540;28;20138;-27
2022/04/11 06:11:04;;;;;;;5.72;2.40;;;;;;;5.94;100.00;101924.13;5110033;28;20511;-27
2022/04/11 06:13:32;;;;;;;6.80;3.05;;;;;;;5.99;100.00;101922.31;5110743;28;20052;-28
2022/04/11 06:16:04;;;;;;;6.95;3.13;;;;;;;6.06;100.00;101924.94;5108379;28;20088;-29
2022/04/11 06:18:32;;;;;;;6.15;3.17;;;;;;;6.10;100.00;101926.97;5108627;28;20543;-27
2022/04/11 06:21:02;;;;;;;4.85;2.78;;;;;;;6.16;100.00;101926.00;5109697;28;20104;-28
2022/04/11 06:23:30;;;;;;;8.68;3.50;;;;;;;6.23;100.00;101935.00;5110368;28;20055;-28
2022/04/11 06:25:58;;;;;;;7.43;3.30;;;;;;;6.27;100.00;101924.28;5108914;28;20446;-26
2022/04/11 06:28:29;;;;;;;7.18;3.72;;;;;;;6.33;100.00;101926.09;5107393;28;20507;-29
2022/04/11 06:30:57;;;;;;;7.00;3.30;;;;;;;6.40;100.00;101925.94;5107846;28;20585;-29
2022/04/11 06:33:25;;;;;;;6.40;2.65;;;;;;;6.47;100.00;101930.25;5109359;28;20054;-27
2022/04/11 06:35:53;;;;;;;8.48;3.83;;;;;;;6.59;100.00;101929.41;5105878;28;20476;-28
2022/04/11 06:38:25;;;;;;;8.63;3.30;;;;;;;6.67;100.00;101928.97;5108417;28;20135;-30
2022/04/11 06:40:53;;;;;;;6.95;2.90;;;;;;;6.77;100.00;101934.75;5108866;28;20047;-27
2022/04/11 06:43:21;;;;;;;5.25;2.30;;;;;;;6.86;100.00;101938.78;5108991;28;20063;-30
2022/04/11 06:46:02;;;;;;;5.82;2.95;;;;;;;6.96;100.00;101936.22;5108458;28;20146;-28
2022/04/11 06:48:34;;;;;;;7.72;2.90;;;;;;;7.07;100.00;101938.09;5109279;28;20406;-31
2022/04/11 06:51:01;;;;;;;6.05;2.90;;;;;;;7.17;100.00;101937.44;5108693;28;20548;-26
2022/04/11 06:53:30;;;;;;;7.03;2.92;;;;;;;7.27;100.00;101940.38;5109699;28;20138;-27
2022/04/11 06:55:58;;;;;;;6.28;3.50;;;;;;;7.36;100.00;101935.28;5110231;28;20054;-29
2022/04/11 06:58:28;;;;;;;8.73;3.70;;;;;;;7.48;100.00;101933.25;5110263;28;20051;-30
2022/04/11 07:00:56;;;;;;;7.03;3.50;;;;;;;7.62;100.00;101934.59;5110382;28;20056;-29
2022/04/11 07:03:24;;;;;;;7.72;3.40;;;;;;;7.75;100.00;101930.63;5109976;28;20051;-30
2022/04/11 07:05:52;;;;;;;6.43;3.25;;;;;;;7.85;100.00;101930.78;5109294;28;20427;-32
2022/04/11 07:08:19;;;;;;;4.53;2.88;;;;;;;7.93;100.00;101924.78;5109994;28;20058;-28
2022/04/11 07:10:48;;;;;;;6.80;3.10;;;;;;;8.05;100.00;101930.22;5108198;28;20047;-27
2022/04/11 07:13:16;;;;;;;9.15;3.40;;;;;;;8.17;100.00;101925.41;5107654;28;20054;-35
2022/04/11 07:15:44;;;;;;;6.07;3.40;;;;;;;8.31;100.00;101926.72;5109900;28;20039;-27
2022/04/11 07:18:12;;;;;;;6.40;3.00;;;;;;;8.43;98.65;101919.09;5109940;28;20412;-27
2022/04/11 07:20:40;;;;;;;5.90;3.00;;;;;;;8.54;97.00;101923.69;5098119;28;20047;-27
2022/04/11 07:23:08;;;;;;;6.50;3.50;;;;;;;8.65;95.84;101919.09;5109822;28;20047;-29
2022/04/11 07:25:36;;;;;;;9.07;4.00;;;;;;;8.79;95.49;101913.97;5097689;28;20419;-28
2022/04/11 07:28:06;;;;;;;6.60;3.45;;;;;;;8.94;94.43;101920.53;5097894;28;20158;-26
2022/04/11 07:30:34;;;;;;;5.13;2.88;;;;;;;9.11;93.30;101914.84;5106691;28;20074;-28
2022/04/11 07:33:02;;;;;;;6.57;3.28;;;;;;;9.51;94.05;101921.91;5109758;28;20044;-28
2022/04/11 07:35:30;;;;;;;7.80;3.35;;;;;;;10.07;93.09;101911.13;5108935;28;20043;-30
2022/04/11 07:37:58;;;;;;;5.75;3.40;;;;;;;10.66;90.22;101912.53;5106390;28;20068;-29
2022/04/11 07:40:26;;;;;;;7.28;3.40;;;;;;;11.11;88.16;101913.78;5109513;28;20062;-29
2022/04/11 07:42:54;;;;;;;4.93;2.90;;;;;;;11.67;86.09;101905.41;5108719;28;20471;-28
2022/04/11 07:45:24;;;;;;;6.03;3.13;;;;;;;12.11;83.00;101904.78;5109638;28;20143;-28
2022/04/11 07:47:53;;;;;;;7.67;3.07;;;;;;;12.57;81.13;101903.50;5107386;28;20043;-28
2022/04/11 07:50:21;;;;;;;4.45;2.40;;;;;;;12.99;76.98;101897.38;5109901;28;20043;-28
2022/04/11 07:52:50;;;;;;;5.78;3.17;;;;;;;13.45;75.13;101897.91;5109640;28;20104;-29
2022/04/11 07:55:21;;;;;;;6.82;3.13;;;;;;;13.94;72.38;101904.47;5102371;28;20047;-28
2022/04/11 07:57:49;;;;;;;4.85;3.08;;;;;;;14.32;68.28;101899.84;5109105;28;20056;-28
2022/04/11 08:00:21;;;;;;;8.45;3.22;;;;;;;14.64;67.66;101901.97;5109580;28;20051;-30
2022/04/11 08:02:52;;;;;;;7.78;3.30;;;;;;;15.02;66.37;101900.88;5108754;28;20056;-29
2022/04/11 08:05:21;;;;;;;5.75;3.28;;;;;;;15.52;63.91;101896.41;5109559;28;20100;-27
2022/04/11 08:07:50;;;;;;;8.65;3.47;;;;;;;15.79;61.19;101897.66;5109857;28;20051;-28
2022/04/11 08:10:18;;;;;;;5.68;3.25;;;;;;;15.90;59.02;101893.53;5107158;28;20050;-27
2022/04/11 08:12:52;;;;;;;5.80;2.92;;;;;;;15.72;57.13;101900.06;5109263;28;20094;-29
2022/04/11 08:15:19;;;;;;;5.45;3.20;;;;;;;15.62;58.82;101898.25;5109701;28;20043;-34
2022/04/11 08:17:47;;;;;;;5.82;3.20;;;;;;;15.81;58.27;101898.19;5108696;28;20048;-32
2022/04/11 08:20:16;;;;;;;4.93;3.20;;;;;;;16.34;58.72;101894.94;5109224;28;20143;-28
2022/04/11 08:22:45;;;;;;;5.93;3.40;;;;;;;17.06;56.61;101881.78;5107723;28;20051;-28
2022/04/11 08:25:14;;;;;;;6.75;3.70;;;;;;;17.48;52.96;101886.13;5108672;28;20047;-28
2022/04/11 08:27:42;;;;;;;6.30;3.50;;;;;;;17.24;51.87;101874.31;5108996;28;20051;-28
2022/04/11 08:30:12;;;;;;;5.65;3.60;;;;;;;17.09;53.03;101874.69;5108781;28;20134;-27
2022/04/11 08:32:41;;;;;;;6.88;3.33;;;;;;;17.52;52.31;101875.84;5106286;28;20040;-30
2022/04/11 08:35:09;;;;;;;4.97;3.25;;;;;;;18.06;51.82;101882.34;5107704;28;20072;-29
2022/04/11 08:37:40;;;;;;;6.00;3.30;;;;;;;18.66;49.42;101869.59;5106688;28;20467;-29
2022/04/11 08:40:10;;;;;;;6.38;3.35;;;;;;;18.95;48.41;101871.84;5109031;28;20059;-30
2022/04/11 08:42:39;;;;;;;5.40;3.53;;;;;;;19.08;46.89;101871.66;5108108;28;20121;-28
2022/04/11 08:45:13;;;;;;;7.32;3.22;;;;;;;19.35;46.56;101870.50;5105034;28;20039;-28
2022/04/11 08:47:43;;;;;;;4.93;3.30;;;;;;;19.07;44.43;101867.16;5109257;28;20062;-28
2022/04/11 08:50:12;;;;;;;5.13;3.17;;;;;;;18.57;45.36;101864.75;5112125;28;20040;-29
2022/04/11 08:52:42;;;;;;;5.88;3.35;;;;;;;18.19;45.71;101858.78;5111549;28;20138;-31
2022/04/11 08:55:11;;;;;;;5.57;3.20;;;;;;;18.05;45.72;101860.91;5112462;28;20055;-29
2022/04/11 08:57:40;;;;;;;5.57;3.50;;;;;;;17.89;46.14;101865.31;5112780;28;20139;-28
2022/04/11 09:00:11;;;;;;;5.13;3.67;;;;;;;17.99;44.93;101859.38;5111712;28;20062;-28
2022/04/11 09:02:41;;;;;;;5.68;3.65;;;;;;;18.01;44.40;101864.69;5112665;28;20052;-29
2022/04/11 09:05:10;;;;;;;6.43;3.90;;;;;;;17.71;43.22;101855.91;5111496;28;20043;-27
2022/04/11 09:07:50;;;;;;;6.45;4.30;;;;;;;17.44;42.89;101854.03;5112621;28;20047;-28
2022/04/11 09:10:20;;;;;;;6.70;4.05;;;;;;;17.24;42.50;101860.19;5110450;28;20043;-29
2022/04/11 09:12:49;;;;;;;5.80;3.97;;;;;;;17.18;43.37;101850.22;5111577;28;20047;-29
2022/04/11 09:15:18;;;;;;;6.88;4.07;;;;;;;17.23;43.11;101847.25;5111587;28;20123;-28
2022/04/11 09:17:47;;;;;;;7.65;4.18;;;;;;;17.27;42.61;101839.81;5112175;28;20043;-28
2022/04/11 09:20:16;;;;;;;6.13;3.83;;;;;;;17.23;42.25;101838.78;5112477;28;20039;-28
2022/04/11 09:22:46;;;;;;;6.60;3.78;;;;;;;17.07;42.36;101841.16;5113295;28;20576;-28
2022/04/11 09:25:15;;;;;;;6.80;4.25;;;;;;;17.26;42.28;101834.50;5113229;28;20050;-27
2022/04/11 09:27:45;;;;;;;6.25;4.00;;;;;;;17.40;41.17;101838.91;5112028;28;20043;-28
2022/04/11 09:30:24;;;;;;;5.55;3.50;;;;;;;17.58;40.20;101833.41;5112918;28;20040;-28
2022/04/11 09:32:53;;;;;;;6.43;4.40;;;;;;;17.75;40.41;101833.53;5112967;28;20082;-28
2022/04/11 09:35:22;;;;;;;6.32;3.80;;;;;;;17.83;40.15;101836.38;5112122;28;20036;-31
2022/04/11 09:38:06;;;;;;;5.82;3.85;;;;;;;17.91;38.21;101834.75;5112739;28;20050;-28
2022/04/11 09:40:39;;;;;;;5.93;3.88;;;;;;;17.76;38.67;101840.84;5102519;28;20074;-28
2022/04/11 09:43:08;;;;;;;6.70;4.03;;;;;;;17.61;38.26;101838.38;5112738;28;20130;-35
2022/04/11 09:45:41;;;;;;;7.63;3.95;;;;;;;17.49;39.00;101830.50;5112664;27;20071;-28
2022/04/11 09:48:10;;;;;;;6.55;3.67;;;;;;;17.78;40.04;101838.53;5112127;28;20412;-31
2022/04/11 09:50:37;;;;;;;7.50;4.47;;;;;;;18.13;38.62;101829.03;5112411;28;20047;-28
2022/04/11 09:53:14;;;;;;;7.70;4.03;;;;;;;18.49;37.78;101834.47;5112478;28;20439;-33
2022/04/11 09:55:46;;;;;;;6.85;4.18;;;;;;;18.72;38.68;101828.72;5112055;28;20462;-33
2022/04/11 09:58:14;;;;;;;7.80;4.30;;;;;;;18.74;37.53;101832.06;5112394;28;20456;-28
2022/04/11 10:00:43;;;;;;;7.10;4.43;;;;;;;18.59;37.20;101836.16;5112325;28;20039;-29
2022/04/11 10:03:11;;;;;;;6.95;4.00;;;;;;;18.46;37.19;101826.63;5111522;28;20040;-33
2022/04/11 10:05:40;;;;;;;7.13;4.43;;;;;;;18.59;37.02;101830.50;5112105;28;20048;-30
2022/04/11 10:08:13;;;;;;;7.15;4.28;;;;;;;18.88;36.83;101830.72;5112472;28;20580;-28
2022/04/11 10:10:43;;;;;;;6.57;4.20;;;;;;;19.15;35.49;101820.25;5111514;28;20555;-32
2022/04/11 10:13:13;;;;;;;5.45;3.65;;;;;;;18.86;34.24;101824.56;5111043;28;20060;-27
2022/04/11 10:15:42;;;;;;;6.18;4.35;;;;;;;18.20;34.87;101817.25;5111150;28;20047;-28
2022/04/11 10:18:13;;;;;;;6.38;4.43;;;;;;;18.05;35.02;101826.16;5111031;28;20098;-28
2022/04/11 10:20:43;;;;;;;7.53;4.10;;;;;;;17.84;34.89;101820.25;5111866;28;20126;-28
2022/04/11 10:23:40;;;;;;;7.85;4.70;;;;;;;17.77;35.33;101826.41;5111391;28;20051;-28
2022/04/11 10:26:16;;;;;;;7.38;4.25;;;;;;;18.07;33.11;101829.50;5111450;28;20480;-30
2022/04/11 10:28:45;;;;;;;5.82;4.50;;;;;;;18.21;34.16;101816.91;5109076;28;20058;-28
2022/04/11 10:31:15;;;;;;;6.15;4.10;;;;;;;18.11;34.50;101820.06;5110507;28;20130;-33
2022/04/11 10:33:47;;;;;;;9.25;4.97;;;;;;;17.85;33.34;101816.28;5111140;28;20051;-35
2022/04/11 10:36:29;;;;;;;9.02;4.88;;;;;;;17.56;33.56;101813.97;5111716;28;20408;-28
2022/04/11 10:39:24;;;;;;;6.05;3.63;;;;;;;17.15;30.88;101806.56;5109768;28;20497;-28
2022/04/11 10:42:25;;;;;;;7.20;4.07;;;;;;;17.00;32.44;101800.44;5111246;28;20052;-29
2022/04/11 10:44:56;;;;;;;6.50;4.50;;;;;;;17.22;35.03;101797.63;5067206;28;20131;-27
2022/04/11 10:47:48;;;;;;;5.78;4.03;;;;;;;17.64;33.37;101798.22;5103082;28;20524;-29
2022/04/11 10:50:28;;;;;;;8.25;4.57;;;;;;;17.80;33.09;101789.03;5111670;28;20408;-28
2022/04/11 10:53:12;;;;;;;7.22;4.63;;;;;;;17.37;31.44;101783.16;5101110;28;20419;-29
2022/04/11 10:55:55;;;;;;;7.72;4.50;;;;;;;17.28;33.61;101785.06;5110575;27;20036;-26
2022/04/11 10:58:39;;;;;;;5.50;4.32;;;;;;;17.37;33.97;101783.16;5110675;28;20134;-28
2022/04/11 11:01:07;;;;;;;6.57;4.43;;;;;;;17.47;34.48;101785.69;5111405;28;20499;-31
2022/04/11 11:03:36;;;;;;;9.02;4.53;;;;;;;17.61;34.97;101777.09;5111281;28;20104;-28
2022/04/11 11:06:23;;;;;;;5.70;4.05;;;;;;;17.78;35.39;101773.59;5110824;28;20130;-29
2022/04/11 11:08:51;;;;;;;6.10;4.13;;;;;;;18.03;34.74;101772.84;5111312;28;20086;-27
2022/04/11 11:11:24;;;;;;;7.57;4.90;;;;;;;17.92;34.66;101771.47;5110792;28;20054;-29
2022/04/11 11:13:54;;;;;;;7.82;4.70;;;;;;;17.67;34.97;101761.72;5110346;28;20044;-30
2022/04/11 11:16:41;;;;;;;6.22;4.22;;;;;;;17.82;34.94;101763.28;5109712;28;20146;-29
2022/04/11 11:19:24;;;;;;;7.80;4.95;;;;;;;18.03;34.66;101766.34;5110265;28;20126;-30
2022/04/11 11:22:08;;;;;;;6.68;4.30;;;;;;;18.23;33.61;101763.75;5111128;28;20047;-28
2022/04/11 11:24:36;;;;;;;6.60;4.63;;;;;;;18.20;34.08;101763.56;5110789;28;20051;-27
2022/04/11 11:27:06;;;;;;;7.50;4.90;;;;;;;18.04;33.84;101763.19;5110374;28;20044;-29
2022/04/11 11:29:43;;;;;;;8.13;5.03;;;;;;;17.71;34.22;101753.44;5110714;28;20512;-27
2022/04/11 11:32:13;;;;;;;7.70;4.72;;;;;;;17.77;34.82;101749.34;5110936;28;20043;-32
2022/04/11 11:34:43;;;;;;;7.05;4.40;;;;;;;17.86;34.22;101747.34;5110531;28;20047;-26
2022/04/11 11:37:13;;;;;;;6.10;4.75;;;;;;;17.75;34.46;101737.53;5110656;28;20036;-25
2022/04/11 11:39:43;;;;;;;7.45;4.57;;;;;;;17.79;34.97;101744.16;5110444;28;20389;-31
2022/04/11 11:42:14;;;;;;;8.95;5.35;;;;;;;17.66;34.50;101739.47;5109484;28;20044;-33